Bon Aqua, Tennessee
Current Conditions -  °F | °C
As of 2:35 PM on Saturday 25 Oct 2014 (Local Time) from KMRC Reporting Station
Few Clouds Few Clouds  
Wind Chill: 79°   Ceiling: Unl
Heat Index: 80°   Visibility: 10mi
Dew Point: 63°   Wind: 6mph
Humidity: 57%   Direction: 270°W
Pressure: 30"   Gusts: NA
Location:  35.95°N, 87.33°W
Report Text: KMRC 251935Z AUTO 27005KT 10SM FEW040 26/17 A3000 RMK
Loading
Personal Weather Stations






























Interactive Weather Map
Tropical Storm Tracking
New forecast layout! Learn more

10-Day Weather Forecast

Advertisements
Track Severe Weather on mobile